sensor_id;sensor_type;location;lat;lon;timestamp;P1;durP1;ratioP1;P2;durP2;ratioP2
48881;SDS011;57063;51.406;-2.402;2023-09-19T00:00:43;16.75;;;2.75;;
48881;SDS011;57063;51.406;-2.402;2023-09-19T00:03:09;22.15;;;3.72;;
48881;SDS011;57063;51.406;-2.402;2023-09-19T00:05:37;20.88;;;2.90;;
48881;SDS011;57063;51.406;-2.402;2023-09-19T00:08:03;23.98;;;3.70;;
48881;SDS011;57063;51.406;-2.402;2023-09-19T00:10:29;16.67;;;2.78;;
48881;SDS011;57063;51.406;-2.402;2023-09-19T00:12:59;22.85;;;4.35;;
48881;SDS011;57063;51.406;-2.402;2023-09-19T00:15:24;16.15;;;3.67;;
48881;SDS011;57063;51.406;-2.402;2023-09-19T00:17:55;15.10;;;2.97;;
48881;SDS011;57063;51.406;-2.402;2023-09-19T00:20:21;21.25;;;3.22;;
48881;SDS011;57063;51.406;-2.402;2023-09-19T00:22:48;21.00;;;4.05;;
48881;SDS011;57063;51.406;-2.402;2023-09-19T00:25:19;21.25;;;3.42;;
48881;SDS011;57063;51.406;-2.402;2023-09-19T00:27:45;22.08;;;3.75;;
48881;SDS011;57063;51.406;-2.402;2023-09-19T00:30:13;22.23;;;4.68;;
48881;SDS011;57063;51.406;-2.402;2023-09-19T00:32:44;20.13;;;3.00;;
48881;SDS011;57063;51.406;-2.402;2023-09-19T00:35:12;21.88;;;3.58;;
48881;SDS011;57063;51.406;-2.402;2023-09-19T00:37:40;15.20;;;2.80;;
48881;SDS011;57063;51.406;-2.402;2023-09-19T00:40:06;16.80;;;3.05;;
48881;SDS011;57063;51.406;-2.402;2023-09-19T00:42:36;22.63;;;2.05;;
48881;SDS011;57063;51.406;-2.402;2023-09-19T00:45:02;30.38;;;4.25;;
48881;SDS011;57063;51.406;-2.402;2023-09-19T00:47:28;20.10;;;3.90;;
48881;SDS011;57063;51.406;-2.402;2023-09-19T00:49:54;28.27;;;3.75;;
48881;SDS011;57063;51.406;-2.402;2023-09-19T00:52:20;21.10;;;2.83;;
48881;SDS011;57063;51.406;-2.402;2023-09-19T00:54:47;26.52;;;4.78;;
48881;SDS011;57063;51.406;-2.402;2023-09-19T00:57:13;18.95;;;3.38;;
48881;SDS011;57063;51.406;-2.402;2023-09-19T00:59:40;21.75;;;3.22;;
48881;SDS011;57063;51.406;-2.402;2023-09-19T01:02:07;9.57;;;2.30;;
48881;SDS011;57063;51.406;-2.402;2023-09-19T01:04:33;11.20;;;2.53;;
48881;SDS011;57063;51.406;-2.402;2023-09-19T01:06:59;11.80;;;2.55;;
48881;SDS011;57063;51.406;-2.402;2023-09-19T01:09:24;18.55;;;4.10;;
48881;SDS011;57063;51.406;-2.402;2023-09-19T01:11:50;18.98;;;3.55;;
48881;SDS011;57063;51.406;-2.402;2023-09-19T01:14:42;15.13;;;2.72;;
48881;SDS011;57063;51.406;-2.402;2023-09-19T01:17:24;17.77;;;3.55;;
48881;SDS011;57063;51.406;-2.402;2023-09-19T01:20:12;20.90;;;3.53;;
48881;SDS011;57063;51.406;-2.402;2023-09-19T01:22:56;17.40;;;3.92;;
48881;SDS011;57063;51.406;-2.402;2023-09-19T01:28:32;21.50;;;3.33;;
48881;SDS011;57063;51.406;-2.402;2023-09-19T01:31:09;29.85;;;3.58;;
48881;SDS011;57063;51.406;-2.402;2023-09-19T01:33:55;21.10;;;3.40;;
48881;SDS011;57063;51.406;-2.402;2023-09-19T01:36:25;16.08;;;2.85;;
48881;SDS011;57063;51.406;-2.402;2023-09-19T01:38:51;22.40;;;4.00;;
48881;SDS011;57063;51.406;-2.402;2023-09-19T01:41:21;18.80;;;3.33;;
48881;SDS011;57063;51.406;-2.402;2023-09-19T01:43:55;16.30;;;2.47;;
48881;SDS011;57063;51.406;-2.402;2023-09-19T01:46:24;17.48;;;2.78;;
48881;SDS011;57063;51.406;-2.402;2023-09-19T01:52:02;14.15;;;2.08;;
48881;SDS011;57063;51.406;-2.402;2023-09-19T01:54:36;17.70;;;2.60;;
48881;SDS011;57063;51.406;-2.402;2023-09-19T01:57:14;11.88;;;2.20;;
48881;SDS011;57063;51.406;-2.402;2023-09-19T01:59:47;22.52;;;3.33;;
48881;SDS011;57063;51.406;-2.402;2023-09-19T02:02:17;19.63;;;3.05;;
48881;SDS011;57063;51.406;-2.402;2023-09-19T02:04:46;21.83;;;3.67;;
48881;SDS011;57063;51.406;-2.402;2023-09-19T02:07:13;17.67;;;2.75;;
48881;SDS011;57063;51.406;-2.402;2023-09-19T02:09:40;20.38;;;2.63;;
48881;SDS011;57063;51.406;-2.402;2023-09-19T02:12:08;25.65;;;5.40;;
48881;SDS011;57063;51.406;-2.402;2023-09-19T02:14:34;21.88;;;3.22;;
48881;SDS011;57063;51.406;-2.402;2023-09-19T02:17:01;10.38;;;2.13;;
48881;SDS011;57063;51.406;-2.402;2023-09-19T02:19:28;15.07;;;2.78;;
48881;SDS011;57063;51.406;-2.402;2023-09-19T02:21:54;17.20;;;3.28;;
48881;SDS011;57063;51.406;-2.402;2023-09-19T02:24:20;16.02;;;2.75;;
48881;SDS011;57063;51.406;-2.402;2023-09-19T02:26:45;13.55;;;2.28;;
48881;SDS011;57063;51.406;-2.402;2023-09-19T02:29:12;14.35;;;1.65;;
48881;SDS011;57063;51.406;-2.402;2023-09-19T02:31:38;21.10;;;2.90;;
48881;SDS011;57063;51.406;-2.402;2023-09-19T02:34:03;18.65;;;2.40;;
48881;SDS011;57063;51.406;-2.402;2023-09-19T02:36:30;18.38;;;2.30;;
48881;SDS011;57063;51.406;-2.402;2023-09-19T02:38:56;17.13;;;2.25;;
48881;SDS011;57063;51.406;-2.402;2023-09-19T02:41:21;10.02;;;2.45;;
48881;SDS011;57063;51.406;-2.402;2023-09-19T02:43:46;21.48;;;3.72;;
48881;SDS011;57063;51.406;-2.402;2023-09-19T02:46:12;15.98;;;2.78;;
48881;SDS011;57063;51.406;-2.402;2023-09-19T02:48:38;15.15;;;2.85;;
48881;SDS011;57063;51.406;-2.402;2023-09-19T02:51:03;13.95;;;1.95;;
48881;SDS011;57063;51.406;-2.402;2023-09-19T02:53:29;19.00;;;2.70;;
48881;SDS011;57063;51.406;-2.402;2023-09-19T02:55:56;20.30;;;2.88;;
48881;SDS011;57063;51.406;-2.402;2023-09-19T02:58:21;13.25;;;2.17;;
48881;SDS011;57063;51.406;-2.402;2023-09-19T03:00:47;13.60;;;2.05;;
48881;SDS011;57063;51.406;-2.402;2023-09-19T03:03:14;24.52;;;2.47;;
48881;SDS011;57063;51.406;-2.402;2023-09-19T03:05:41;14.35;;;2.42;;
48881;SDS011;57063;51.406;-2.402;2023-09-19T03:08:12;14.52;;;3.08;;
48881;SDS011;57063;51.406;-2.402;2023-09-19T03:10:39;14.45;;;2.58;;
48881;SDS011;57063;51.406;-2.402;2023-09-19T03:13:05;13.38;;;1.95;;
48881;SDS011;57063;51.406;-2.402;2023-09-19T03:15:34;18.15;;;2.63;;
48881;SDS011;57063;51.406;-2.402;2023-09-19T03:18:02;15.23;;;2.40;;
48881;SDS011;57063;51.406;-2.402;2023-09-19T03:20:28;14.15;;;2.40;;
48881;SDS011;57063;51.406;-2.402;2023-09-19T03:22:53;16.88;;;3.25;;
48881;SDS011;57063;51.406;-2.402;2023-09-19T03:25:18;17.02;;;2.05;;
48881;SDS011;57063;51.406;-2.402;2023-09-19T03:27:44;19.45;;;2.67;;
48881;SDS011;57063;51.406;-2.402;2023-09-19T03:30:09;15.35;;;1.88;;
48881;SDS011;57063;51.406;-2.402;2023-09-19T03:32:43;17.33;;;2.00;;
48881;SDS011;57063;51.406;-2.402;2023-09-19T03:35:10;8.63;;;1.83;;
48881;SDS011;57063;51.406;-2.402;2023-09-19T03:37:38;12.00;;;1.70;;
48881;SDS011;57063;51.406;-2.402;2023-09-19T03:40:04;17.23;;;2.75;;
48881;SDS011;57063;51.406;-2.402;2023-09-19T03:42:30;13.73;;;2.42;;
48881;SDS011;57063;51.406;-2.402;2023-09-19T03:44:56;10.25;;;1.98;;
48881;SDS011;57063;51.406;-2.402;2023-09-19T03:47:22;10.52;;;1.60;;
48881;SDS011;57063;51.406;-2.402;2023-09-19T03:49:47;21.83;;;2.08;;
48881;SDS011;57063;51.406;-2.402;2023-09-19T03:52:13;21.25;;;2.20;;
48881;SDS011;57063;51.406;-2.402;2023-09-19T03:54:40;14.85;;;2.95;;
48881;SDS011;57063;51.406;-2.402;2023-09-19T03:57:06;11.50;;;1.75;;
48881;SDS011;57063;51.406;-2.402;2023-09-19T03:59:32;14.05;;;2.40;;
48881;SDS011;57063;51.406;-2.402;2023-09-19T04:01:57;10.85;;;1.80;;
48881;SDS011;57063;51.406;-2.402;2023-09-19T04:04:23;11.48;;;1.90;;
48881;SDS011;57063;51.406;-2.402;2023-09-19T04:06:50;10.35;;;1.33;;
48881;SDS011;57063;51.406;-2.402;2023-09-19T04:09:16;16.45;;;1.60;;
48881;SDS011;57063;51.406;-2.402;2023-09-19T04:11:41;11.82;;;2.08;;
48881;SDS011;57063;51.406;-2.402;2023-09-19T04:14:06;7.38;;;1.88;;
48881;SDS011;57063;51.406;-2.402;2023-09-19T04:16:32;10.55;;;1.23;;
48881;SDS011;57063;51.406;-2.402;2023-09-19T04:18:57;11.25;;;1.52;;
48881;SDS011;57063;51.406;-2.402;2023-09-19T04:21:22;11.50;;;1.50;;
48881;SDS011;57063;51.406;-2.402;2023-09-19T04:23:48;9.65;;;2.03;;
48881;SDS011;57063;51.406;-2.402;2023-09-19T04:26:13;8.02;;;1.42;;
48881;SDS011;57063;51.406;-2.402;2023-09-19T04:28:41;7.75;;;2.05;;
48881;SDS011;57063;51.406;-2.402;2023-09-19T04:31:06;7.15;;;1.45;;
48881;SDS011;57063;51.406;-2.402;2023-09-19T04:33:33;10.43;;;1.52;;
48881;SDS011;57063;51.406;-2.402;2023-09-19T04:36:00;4.32;;;0.88;;
48881;SDS011;57063;51.406;-2.402;2023-09-19T04:38:25;6.90;;;1.77;;
48881;SDS011;57063;51.406;-2.402;2023-09-19T04:40:56;6.40;;;0.93;;
48881;SDS011;57063;51.406;-2.402;2023-09-19T04:43:22;9.80;;;1.73;;
48881;SDS011;57063;51.406;-2.402;2023-09-19T04:45:49;10.00;;;1.85;;
48881;SDS011;57063;51.406;-2.402;2023-09-19T04:48:14;7.75;;;1.13;;
48881;SDS011;57063;51.406;-2.402;2023-09-19T04:50:40;10.57;;;1.48;;
48881;SDS011;57063;51.406;-2.402;2023-09-19T04:53:06;8.50;;;1.10;;
48881;SDS011;57063;51.406;-2.402;2023-09-19T04:55:32;9.10;;;1.10;;
48881;SDS011;57063;51.406;-2.402;2023-09-19T04:57:57;6.20;;;1.13;;
48881;SDS011;57063;51.406;-2.402;2023-09-19T05:00:23;5.53;;;1.00;;
48881;SDS011;57063;51.406;-2.402;2023-09-19T05:02:53;10.25;;;1.13;;
48881;SDS011;57063;51.406;-2.402;2023-09-19T05:07:47;6.97;;;0.90;;
48881;SDS011;57063;51.406;-2.402;2023-09-19T05:10:13;7.00;;;1.52;;
48881;SDS011;57063;51.406;-2.402;2023-09-19T05:12:38;7.30;;;1.30;;
48881;SDS011;57063;51.406;-2.402;2023-09-19T05:15:04;8.93;;;1.70;;
48881;SDS011;57063;51.406;-2.402;2023-09-19T05:17:32;6.40;;;0.70;;
48881;SDS011;57063;51.406;-2.402;2023-09-19T05:19:58;5.88;;;0.82;;
48881;SDS011;57063;51.406;-2.402;2023-09-19T05:22:23;11.88;;;1.23;;
48881;SDS011;57063;51.406;-2.402;2023-09-19T05:24:51;8.48;;;1.83;;
48881;SDS011;57063;51.406;-2.402;2023-09-19T05:27:18;10.60;;;2.00;;
48881;SDS011;57063;51.406;-2.402;2023-09-19T05:29:43;4.50;;;0.80;;
48881;SDS011;57063;51.406;-2.402;2023-09-19T05:32:09;7.22;;;1.05;;
48881;SDS011;57063;51.406;-2.402;2023-09-19T05:34:35;9.85;;;1.50;;
48881;SDS011;57063;51.406;-2.402;2023-09-19T05:37:01;5.70;;;1.00;;
48881;SDS011;57063;51.406;-2.402;2023-09-19T05:39:27;10.32;;;1.67;;
48881;SDS011;57063;51.406;-2.402;2023-09-19T05:41:52;8.18;;;1.48;;
48881;SDS011;57063;51.406;-2.402;2023-09-19T05:44:17;7.13;;;2.70;;
48881;SDS011;57063;51.406;-2.402;2023-09-19T05:46:43;9.63;;;1.33;;
48881;SDS011;57063;51.406;-2.402;2023-09-19T05:49:08;8.68;;;1.65;;
48881;SDS011;57063;51.406;-2.402;2023-09-19T05:51:33;12.40;;;1.40;;
48881;SDS011;57063;51.406;-2.402;2023-09-19T05:54:00;10.68;;;1.55;;
48881;SDS011;57063;51.406;-2.402;2023-09-19T05:56:25;5.80;;;1.55;;
48881;SDS011;57063;51.406;-2.402;2023-09-19T05:58:50;11.77;;;2.30;;
48881;SDS011;57063;51.406;-2.402;2023-09-19T06:01:18;8.52;;;1.58;;
48881;SDS011;57063;51.406;-2.402;2023-09-19T06:03:43;13.32;;;1.90;;
48881;SDS011;57063;51.406;-2.402;2023-09-19T06:06:09;8.93;;;2.28;;
48881;SDS011;57063;51.406;-2.402;2023-09-19T06:08:34;7.22;;;1.65;;
48881;SDS011;57063;51.406;-2.402;2023-09-19T06:11:00;9.27;;;2.13;;
48881;SDS011;57063;51.406;-2.402;2023-09-19T06:13:27;11.68;;;2.50;;
48881;SDS011;57063;51.406;-2.402;2023-09-19T06:15:54;9.55;;;2.10;;
48881;SDS011;57063;51.406;-2.402;2023-09-19T06:18:21;8.23;;;1.85;;
48881;SDS011;57063;51.406;-2.402;2023-09-19T06:20:51;19.83;;;3.22;;
48881;SDS011;57063;51.406;-2.402;2023-09-19T06:23:17;9.43;;;2.00;;
48881;SDS011;57063;51.406;-2.402;2023-09-19T06:25:45;12.80;;;1.98;;
48881;SDS011;57063;51.406;-2.402;2023-09-19T06:28:10;11.20;;;1.80;;
48881;SDS011;57063;51.406;-2.402;2023-09-19T06:30:39;9.65;;;1.95;;
48881;SDS011;57063;51.406;-2.402;2023-09-19T06:33:05;9.13;;;2.08;;
48881;SDS011;57063;51.406;-2.402;2023-09-19T06:35:32;12.73;;;1.70;;
48881;SDS011;57063;51.406;-2.402;2023-09-19T06:37:58;8.13;;;1.67;;
48881;SDS011;57063;51.406;-2.402;2023-09-19T06:40:24;11.13;;;2.85;;
48881;SDS011;57063;51.406;-2.402;2023-09-19T06:42:52;12.52;;;2.60;;
48881;SDS011;57063;51.406;-2.402;2023-09-19T06:45:19;12.15;;;2.92;;
48881;SDS011;57063;51.406;-2.402;2023-09-19T06:47:45;17.27;;;2.70;;
48881;SDS011;57063;51.406;-2.402;2023-09-19T06:50:14;14.15;;;2.67;;
48881;SDS011;57063;51.406;-2.402;2023-09-19T06:52:40;16.90;;;3.25;;
48881;SDS011;57063;51.406;-2.402;2023-09-19T06:55:06;10.52;;;2.47;;
48881;SDS011;57063;51.406;-2.402;2023-09-19T06:57:32;25.63;;;4.10;;
48881;SDS011;57063;51.406;-2.402;2023-09-19T06:59:58;10.02;;;2.67;;
48881;SDS011;57063;51.406;-2.402;2023-09-19T07:02:23;12.57;;;2.28;;
48881;SDS011;57063;51.406;-2.402;2023-09-19T07:04:48;13.00;;;3.40;;
48881;SDS011;57063;51.406;-2.402;2023-09-19T07:07:14;8.73;;;2.40;;
48881;SDS011;57063;51.406;-2.402;2023-09-19T07:09:40;16.00;;;3.38;;
48881;SDS011;57063;51.406;-2.402;2023-09-19T07:12:07;18.92;;;3.53;;
48881;SDS011;57063;51.406;-2.402;2023-09-19T07:14:33;17.48;;;3.38;;
48881;SDS011;57063;51.406;-2.402;2023-09-19T07:16:58;11.80;;;3.58;;
48881;SDS011;57063;51.406;-2.402;2023-09-19T07:19:26;18.77;;;3.38;;
48881;SDS011;57063;51.406;-2.402;2023-09-19T07:21:56;20.95;;;3.63;;
48881;SDS011;57063;51.406;-2.402;2023-09-19T07:24:24;15.80;;;3.67;;
48881;SDS011;57063;51.406;-2.402;2023-09-19T07:26:52;17.95;;;3.35;;
48881;SDS011;57063;51.406;-2.402;2023-09-19T07:29:17;15.38;;;2.97;;
48881;SDS011;57063;51.406;-2.402;2023-09-19T07:31:43;13.18;;;3.38;;
48881;SDS011;57063;51.406;-2.402;2023-09-19T07:34:09;16.58;;;4.15;;
48881;SDS011;57063;51.406;-2.402;2023-09-19T07:36:35;19.10;;;4.50;;
48881;SDS011;57063;51.406;-2.402;2023-09-19T07:39:02;18.88;;;4.28;;
48881;SDS011;57063;51.406;-2.402;2023-09-19T07:41:31;18.88;;;3.42;;
48881;SDS011;57063;51.406;-2.402;2023-09-19T07:43:57;12.85;;;3.65;;
48881;SDS011;57063;51.406;-2.402;2023-09-19T07:46:23;17.42;;;4.50;;
48881;SDS011;57063;51.406;-2.402;2023-09-19T07:48:49;13.07;;;3.53;;
48881;SDS011;57063;51.406;-2.402;2023-09-19T07:51:15;16.20;;;4.03;;
48881;SDS011;57063;51.406;-2.402;2023-09-19T07:53:41;15.13;;;4.38;;
48881;SDS011;57063;51.406;-2.402;2023-09-19T07:56:07;17.08;;;3.72;;
48881;SDS011;57063;51.406;-2.402;2023-09-19T07:58:34;21.58;;;4.78;;
48881;SDS011;57063;51.406;-2.402;2023-09-19T08:01:05;19.52;;;4.57;;
48881;SDS011;57063;51.406;-2.402;2023-09-19T08:03:38;27.10;;;6.15;;
48881;SDS011;57063;51.406;-2.402;2023-09-19T08:06:08;15.23;;;4.32;;
48881;SDS011;57063;51.406;-2.402;2023-09-19T08:08:34;23.92;;;4.95;;
48881;SDS011;57063;51.406;-2.402;2023-09-19T08:11:04;21.70;;;4.80;;
48881;SDS011;57063;51.406;-2.402;2023-09-19T08:13:40;24.52;;;4.80;;
48881;SDS011;57063;51.406;-2.402;2023-09-19T08:16:09;17.35;;;4.57;;
48881;SDS011;57063;51.406;-2.402;2023-09-19T08:18:35;16.15;;;4.40;;
48881;SDS011;57063;51.406;-2.402;2023-09-19T08:21:02;18.80;;;4.63;;
48881;SDS011;57063;51.406;-2.402;2023-09-19T08:23:28;24.55;;;4.75;;
48881;SDS011;57063;51.406;-2.402;2023-09-19T08:25:57;21.00;;;5.10;;
48881;SDS011;57063;51.406;-2.402;2023-09-19T08:28:23;25.08;;;5.75;;
48881;SDS011;57063;51.406;-2.402;2023-09-19T08:30:49;16.10;;;4.25;;
48881;SDS011;57063;51.406;-2.402;2023-09-19T08:33:15;17.25;;;5.18;;
48881;SDS011;57063;51.406;-2.402;2023-09-19T08:35:41;23.13;;;4.95;;
48881;SDS011;57063;51.406;-2.402;2023-09-19T08:38:07;19.30;;;4.50;;
48881;SDS011;57063;51.406;-2.402;2023-09-19T08:40:36;20.15;;;5.00;;
48881;SDS011;57063;51.406;-2.402;2023-09-19T08:43:05;19.33;;;4.63;;
48881;SDS011;57063;51.406;-2.402;2023-09-19T08:45:32;22.77;;;5.40;;
48881;SDS011;57063;51.406;-2.402;2023-09-19T08:50:52;22.60;;;5.13;;
48881;SDS011;57063;51.406;-2.402;2023-09-19T08:53:22;20.38;;;4.32;;
48881;SDS011;57063;51.406;-2.402;2023-09-19T08:55:57;16.48;;;5.00;;
48881;SDS011;57063;51.406;-2.402;2023-09-19T08:58:27;16.50;;;4.35;;
48881;SDS011;57063;51.406;-2.402;2023-09-19T09:03:25;14.75;;;4.38;;
48881;SDS011;57063;51.406;-2.402;2023-09-19T09:05:51;18.10;;;4.40;;
48881;SDS011;57063;51.406;-2.402;2023-09-19T09:08:17;22.08;;;5.20;;
48881;SDS011;57063;51.406;-2.402;2023-09-19T09:10:46;12.25;;;3.90;;
48881;SDS011;57063;51.406;-2.402;2023-09-19T09:13:12;16.40;;;3.70;;
48881;SDS011;57063;51.406;-2.402;2023-09-19T09:15:39;14.55;;;3.92;;
48881;SDS011;57063;51.406;-2.402;2023-09-19T09:18:07;18.95;;;4.40;;
48881;SDS011;57063;51.406;-2.402;2023-09-19T09:20:32;18.30;;;4.20;;
48881;SDS011;57063;51.406;-2.402;2023-09-19T09:22:58;20.60;;;4.70;;
48881;SDS011;57063;51.406;-2.402;2023-09-19T09:28:19;18.00;;;4.57;;
48881;SDS011;57063;51.406;-2.402;2023-09-19T09:30:45;12.27;;;3.70;;
48881;SDS011;57063;51.406;-2.402;2023-09-19T09:33:12;13.52;;;3.42;;
48881;SDS011;57063;51.406;-2.402;2023-09-19T09:38:17;22.02;;;4.32;;
48881;SDS011;57063;51.406;-2.402;2023-09-19T09:40:50;16.60;;;3.55;;
48881;SDS011;57063;51.406;-2.402;2023-09-19T09:43:26;14.98;;;4.38;;
48881;SDS011;57063;51.406;-2.402;2023-09-19T09:46:15;22.08;;;4.03;;
48881;SDS011;57063;51.406;-2.402;2023-09-19T09:48:48;14.10;;;4.07;;
48881;SDS011;57063;51.406;-2.402;2023-09-19T09:51:40;15.73;;;4.65;;
48881;SDS011;57063;51.406;-2.402;2023-09-19T09:54:09;11.88;;;2.67;;
48881;SDS011;57063;51.406;-2.402;2023-09-19T09:56:51;12.75;;;3.85;;
48881;SDS011;57063;51.406;-2.402;2023-09-19T10:01:48;12.93;;;2.55;;
48881;SDS011;57063;51.406;-2.402;2023-09-19T10:04:26;10.90;;;3.15;;
48881;SDS011;57063;51.406;-2.402;2023-09-19T10:07:01;10.45;;;2.30;;
48881;SDS011;57063;51.406;-2.402;2023-09-19T10:09:30;13.02;;;2.78;;
48881;SDS011;57063;51.406;-2.402;2023-09-19T10:12:09;16.55;;;3.58;;
48881;SDS011;57063;51.406;-2.402;2023-09-19T10:14:38;8.43;;;2.35;;
48881;SDS011;57063;51.406;-2.402;2023-09-19T10:17:06;11.45;;;2.20;;
48881;SDS011;57063;51.406;-2.402;2023-09-19T10:19:46;12.32;;;2.40;;
48881;SDS011;57063;51.406;-2.402;2023-09-19T10:22:14;6.80;;;2.05;;
48881;SDS011;57063;51.406;-2.402;2023-09-19T10:24:41;9.57;;;2.47;;
48881;SDS011;57063;51.406;-2.402;2023-09-19T10:27:09;13.13;;;3.10;;
48881;SDS011;57063;51.406;-2.402;2023-09-19T10:29:36;8.15;;;1.58;;
48881;SDS011;57063;51.406;-2.402;2023-09-19T10:32:04;6.03;;;1.88;;
48881;SDS011;57063;51.406;-2.402;2023-09-19T10:34:32;10.85;;;2.83;;
48881;SDS011;57063;51.406;-2.402;2023-09-19T10:37:06;9.57;;;2.00;;
48881;SDS011;57063;51.406;-2.402;2023-09-19T10:39:36;6.22;;;1.63;;
48881;SDS011;57063;51.406;-2.402;2023-09-19T10:42:05;5.25;;;1.55;;
48881;SDS011;57063;51.406;-2.402;2023-09-19T10:44:32;7.55;;;2.17;;
48881;SDS011;57063;51.406;-2.402;2023-09-19T10:46:58;8.65;;;1.98;;
48881;SDS011;57063;51.406;-2.402;2023-09-19T10:49:24;5.53;;;1.67;;
48881;SDS011;57063;51.406;-2.402;2023-09-19T10:51:51;4.10;;;1.30;;
48881;SDS011;57063;51.406;-2.402;2023-09-19T10:54:21;14.45;;;1.80;;
48881;SDS011;57063;51.406;-2.402;2023-09-19T10:56:52;5.38;;;1.42;;
48881;SDS011;57063;51.406;-2.402;2023-09-19T10:59:19;6.15;;;1.70;;
48881;SDS011;57063;51.406;-2.402;2023-09-19T11:01:53;4.45;;;1.40;;
48881;SDS011;57063;51.406;-2.402;2023-09-19T11:04:30;7.38;;;1.90;;
48881;SDS011;57063;51.406;-2.402;2023-09-19T11:07:07;2.50;;;1.17;;
48881;SDS011;57063;51.406;-2.402;2023-09-19T11:09:55;5.07;;;1.20;;
48881;SDS011;57063;51.406;-2.402;2023-09-19T11:14:56;4.63;;;1.13;;
48881;SDS011;57063;51.406;-2.402;2023-09-19T11:30:44;3.03;;;0.85;;
48881;SDS011;57063;51.406;-2.402;2023-09-19T11:33:17;6.18;;;1.00;;
48881;SDS011;57063;51.406;-2.402;2023-09-19T11:36:07;1.27;;;0.70;;
48881;SDS011;57063;51.406;-2.402;2023-09-19T11:46:25;1.98;;;0.40;;
48881;SDS011;57063;51.406;-2.402;2023-09-19T11:48:53;2.08;;;0.40;;
48881;SDS011;57063;51.406;-2.402;2023-09-19T11:51:20;1.67;;;0.40;;
48881;SDS011;57063;51.406;-2.402;2023-09-19T11:53:57;2.63;;;0.40;;
48881;SDS011;57063;51.406;-2.402;2023-09-19T11:56:38;4.45;;;0.65;;
48881;SDS011;57063;51.406;-2.402;2023-09-19T11:59:19;5.55;;;0.50;;
48881;SDS011;57063;51.406;-2.402;2023-09-19T12:01:52;1.80;;;0.30;;
48881;SDS011;57063;51.406;-2.402;2023-09-19T12:04:41;0.82;;;0.40;;
48881;SDS011;57063;51.406;-2.402;2023-09-19T12:07:15;7.20;;;0.70;;
48881;SDS011;57063;51.406;-2.402;2023-09-19T12:09:45;1.90;;;0.43;;
48881;SDS011;57063;51.406;-2.402;2023-09-19T12:12:25;6.53;;;0.50;;
48881;SDS011;57063;51.406;-2.402;2023-09-19T12:14:52;3.78;;;0.70;;
48881;SDS011;57063;51.406;-2.402;2023-09-19T12:17:19;3.72;;;1.17;;
48881;SDS011;57063;51.406;-2.402;2023-09-19T12:19:55;2.90;;;0.65;;
48881;SDS011;57063;51.406;-2.402;2023-09-19T12:22:21;3.60;;;0.73;;
48881;SDS011;57063;51.406;-2.402;2023-09-19T12:24:49;2.35;;;0.57;;
48881;SDS011;57063;51.406;-2.402;2023-09-19T12:33:38;2.70;;;0.70;;
48881;SDS011;57063;51.406;-2.402;2023-09-19T12:36:25;5.50;;;1.10;;
48881;SDS011;57063;51.406;-2.402;2023-09-19T12:38:59;2.80;;;0.70;;
48881;SDS011;57063;51.406;-2.402;2023-09-19T12:41:38;2.28;;;0.70;;
48881;SDS011;57063;51.406;-2.402;2023-09-19T12:44:10;3.15;;;0.70;;
48881;SDS011;57063;51.406;-2.402;2023-09-19T12:46:38;2.15;;;0.80;;
48881;SDS011;57063;51.406;-2.402;2023-09-19T12:49:19;4.57;;;0.70;;
48881;SDS011;57063;51.406;-2.402;2023-09-19T12:51:46;6.88;;;1.45;;
48881;SDS011;57063;51.406;-2.402;2023-09-19T12:54:12;1.70;;;0.82;;
48881;SDS011;57063;51.406;-2.402;2023-09-19T12:56:44;3.58;;;0.90;;
48881;SDS011;57063;51.406;-2.402;2023-09-19T12:59:11;3.13;;;0.80;;
48881;SDS011;57063;51.406;-2.402;2023-09-19T13:01:39;3.72;;;1.05;;
48881;SDS011;57063;51.406;-2.402;2023-09-19T13:04:18;2.72;;;0.50;;
48881;SDS011;57063;51.406;-2.402;2023-09-19T13:06:49;2.13;;;0.45;;
48881;SDS011;57063;51.406;-2.402;2023-09-19T13:09:15;2.70;;;0.63;;
48881;SDS011;57063;51.406;-2.402;2023-09-19T13:11:42;2.22;;;0.50;;
48881;SDS011;57063;51.406;-2.402;2023-09-19T13:14:13;2.80;;;0.45;;
48881;SDS011;57063;51.406;-2.402;2023-09-19T13:22:04;1.48;;;0.50;;
48881;SDS011;57063;51.406;-2.402;2023-09-19T13:24:50;3.88;;;0.52;;
48881;SDS011;57063;51.406;-2.402;2023-09-19T13:27:16;2.65;;;0.35;;
48881;SDS011;57063;51.406;-2.402;2023-09-19T13:29:42;1.83;;;0.40;;
48881;SDS011;57063;51.406;-2.402;2023-09-19T13:32:07;2.47;;;1.00;;
48881;SDS011;57063;51.406;-2.402;2023-09-19T13:34:36;5.28;;;1.00;;
48881;SDS011;57063;51.406;-2.402;2023-09-19T13:37:02;3.72;;;0.57;;
48881;SDS011;57063;51.406;-2.402;2023-09-19T13:39:40;2.60;;;0.70;;
48881;SDS011;57063;51.406;-2.402;2023-09-19T13:42:13;3.92;;;0.80;;
48881;SDS011;57063;51.406;-2.402;2023-09-19T13:44:39;5.22;;;1.10;;
48881;SDS011;57063;51.406;-2.402;2023-09-19T13:47:06;5.25;;;1.00;;
48881;SDS011;57063;51.406;-2.402;2023-09-19T13:49:46;6.40;;;0.90;;
48881;SDS011;57063;51.406;-2.402;2023-09-19T13:52:15;8.07;;;2.40;;
48881;SDS011;57063;51.406;-2.402;2023-09-19T13:54:41;9.75;;;1.38;;
48881;SDS011;57063;51.406;-2.402;2023-09-19T13:57:06;12.02;;;2.78;;
48881;SDS011;57063;51.406;-2.402;2023-09-19T13:59:32;6.70;;;1.95;;
48881;SDS011;57063;51.406;-2.402;2023-09-19T14:01:57;9.00;;;1.88;;
48881;SDS011;57063;51.406;-2.402;2023-09-19T14:04:23;8.00;;;1.85;;
48881;SDS011;57063;51.406;-2.402;2023-09-19T14:06:48;11.38;;;2.38;;
48881;SDS011;57063;51.406;-2.402;2023-09-19T14:09:14;10.05;;;2.63;;
48881;SDS011;57063;51.406;-2.402;2023-09-19T14:11:41;14.02;;;2.53;;
48881;SDS011;57063;51.406;-2.402;2023-09-19T14:14:07;13.77;;;2.17;;
48881;SDS011;57063;51.406;-2.402;2023-09-19T14:16:32;11.70;;;2.33;;
48881;SDS011;57063;51.406;-2.402;2023-09-19T14:18:58;7.65;;;1.85;;
48881;SDS011;57063;51.406;-2.402;2023-09-19T14:21:23;7.20;;;1.92;;
48881;SDS011;57063;51.406;-2.402;2023-09-19T14:23:49;12.65;;;3.10;;
48881;SDS011;57063;51.406;-2.402;2023-09-19T14:26:19;11.23;;;2.50;;
48881;SDS011;57063;51.406;-2.402;2023-09-19T14:31:20;13.18;;;2.40;;
48881;SDS011;57063;51.406;-2.402;2023-09-19T14:33:56;15.40;;;2.53;;
48881;SDS011;57063;51.406;-2.402;2023-09-19T14:36:24;10.15;;;2.15;;
48881;SDS011;57063;51.406;-2.402;2023-09-19T14:38:54;9.43;;;2.05;;
48881;SDS011;57063;51.406;-2.402;2023-09-19T14:41:20;16.52;;;2.33;;
48881;SDS011;57063;51.406;-2.402;2023-09-19T14:43:47;9.32;;;2.05;;
48881;SDS011;57063;51.406;-2.402;2023-09-19T14:48:52;5.72;;;1.40;;
48881;SDS011;57063;51.406;-2.402;2023-09-19T14:51:19;15.57;;;3.33;;
48881;SDS011;57063;51.406;-2.402;2023-09-19T14:53:45;7.80;;;1.75;;
48881;SDS011;57063;51.406;-2.402;2023-09-19T14:56:12;5.85;;;1.30;;
48881;SDS011;57063;51.406;-2.402;2023-09-19T14:58:38;5.97;;;1.30;;
48881;SDS011;57063;51.406;-2.402;2023-09-19T15:03:33;1.98;;;0.65;;
48881;SDS011;57063;51.406;-2.402;2023-09-19T15:06:02;3.78;;;0.70;;
48881;SDS011;57063;51.406;-2.402;2023-09-19T15:08:35;4.40;;;1.20;;
48881;SDS011;57063;51.406;-2.402;2023-09-19T15:11:03;11.90;;;1.55;;
48881;SDS011;57063;51.406;-2.402;2023-09-19T15:13:32;3.60;;;0.77;;
48881;SDS011;57063;51.406;-2.402;2023-09-19T15:16:05;2.33;;;0.50;;
48881;SDS011;57063;51.406;-2.402;2023-09-19T15:18:35;3.05;;;0.70;;
48881;SDS011;57063;51.406;-2.402;2023-09-19T15:21:05;4.00;;;0.70;;
48881;SDS011;57063;51.406;-2.402;2023-09-19T15:23:32;3.30;;;1.05;;
48881;SDS011;57063;51.406;-2.402;2023-09-19T15:26:05;2.28;;;0.95;;
48881;SDS011;57063;51.406;-2.402;2023-09-19T15:28:31;1.83;;;0.65;;
48881;SDS011;57063;51.406;-2.402;2023-09-19T15:30:59;3.45;;;0.85;;
48881;SDS011;57063;51.406;-2.402;2023-09-19T15:33:25;3.50;;;0.63;;
48881;SDS011;57063;51.406;-2.402;2023-09-19T15:35:52;2.30;;;0.55;;
48881;SDS011;57063;51.406;-2.402;2023-09-19T15:38:18;3.38;;;0.52;;